createdAt,value
2022-10-01T00:01:17.166Z,49639.28
2022-10-01T00:03:44.205Z,49659.22
2022-10-01T00:06:17.741Z,49685.13
2022-10-01T00:08:48.853Z,49621.34
2022-10-01T00:11:21.166Z,49675.19
2022-10-01T00:13:47.993Z,49639.28
2022-10-01T00:16:26.652Z,49651.25
2022-10-01T00:18:54.337Z,49625.34
2022-10-01T00:21:27.371Z,49627.31
2022-10-01T00:23:55.777Z,49643.28
2022-10-01T00:26:27.232Z,49643.28
2022-10-01T00:28:57.181Z,49629.31
2022-10-01T00:31:25.053Z,49677.16
2022-10-01T00:33:53.069Z,49635.31
2022-10-01T00:36:20.130Z,49657.22
2022-10-01T00:38:47.973Z,49659.22
2022-10-01T00:41:16.951Z,49635.31
2022-10-01T00:43:49.865Z,49711.06
2022-10-01T00:46:25.168Z,49643.28
2022-10-01T00:49:01.075Z,49657.22
2022-10-01T00:51:33.251Z,49663.22
2022-10-01T00:54:10.407Z,49647.25
2022-10-01T00:56:38.184Z,49663.22
2022-10-01T00:59:06.236Z,49631.31
2022-10-01T01:01:36.122Z,49651.25
2022-10-01T01:04:03.431Z,49683.16
2022-10-01T01:06:30.205Z,49647.25
2022-10-01T01:08:56.898Z,49623.34
2022-10-01T01:11:40.063Z,49623.34
2022-10-01T01:14:18.658Z,49619.34
2022-10-01T01:17:08.599Z,49673.19
2022-10-01T01:19:50.556Z,49691.13
2022-10-01T01:22:21.663Z,49639.28
2022-10-01T01:24:59.931Z,49649.25
2022-10-01T01:27:46.321Z,49639.28
2022-10-01T01:30:16.967Z,49631.31
2022-10-01T01:33:03.226Z,49645.28
2022-10-01T01:35:37.427Z,49629.31
2022-10-01T01:38:15.248Z,49659.22
2022-10-01T01:40:43.415Z,49719.03
2022-10-01T01:43:21.493Z,49643.28
2022-10-01T01:45:50.751Z,49627.31
2022-10-01T01:48:17.429Z,49655.25
2022-10-01T01:50:52.419Z,49631.31
2022-10-01T01:53:20.247Z,49649.25
2022-10-01T01:55:49.373Z,49695.09
2022-10-01T01:58:17.590Z,49631.31
2022-10-01T02:00:45.764Z,49647.25
2022-10-01T02:03:12.424Z,49679.16
2022-10-01T02:05:47.206Z,49667.19
2022-10-01T02:08:39.255Z,49703.09
2022-10-01T02:11:32.395Z,49671.19
2022-10-01T02:14:13.935Z,49671.19
2022-10-01T02:17:01.439Z,49643.28
2022-10-01T02:19:56.132Z,49651.25
2022-10-01T02:22:43.822Z,49663.22
2022-10-01T02:25:11.279Z,49637.28
2022-10-01T02:27:50.927Z,49663.22
2022-10-01T02:30:18.197Z,49655.25
2022-10-01T02:32:49.249Z,49679.16
2022-10-01T02:35:18.855Z,49679.16
2022-10-01T02:37:51.303Z,49647.25
2022-10-01T02:40:26.237Z,49693.13
2022-10-01T02:42:56.531Z,49647.25
2022-10-01T02:45:26.259Z,49671.19
2022-10-01T02:48:16.754Z,49615.38
2022-10-01T02:50:50.059Z,49645.28
2022-10-01T02:53:30.326Z,49659.22
2022-10-01T02:55:58.391Z,49667.19
2022-10-01T02:58:24.992Z,49663.22
2022-10-01T03:00:52.628Z,49673.19
2022-10-01T03:03:19.276Z,49671.19
2022-10-01T03:05:45.909Z,49663.22
2022-10-01T03:08:12.517Z,49635.31
2022-10-01T03:10:41.452Z,49661.22
2022-10-01T03:13:10.101Z,49691.13
2022-10-01T03:15:36.720Z,49659.22
2022-10-01T03:18:03.505Z,49679.16
2022-10-01T03:20:30.125Z,49623.34
2022-10-01T03:22:56.774Z,49659.22
2022-10-01T03:25:23.366Z,49675.19
2022-10-01T03:27:52.328Z,49651.25
2022-10-01T03:30:18.980Z,49681.16
2022-10-01T03:32:45.558Z,49655.25
2022-10-01T03:35:12.276Z,49641.28
2022-10-01T03:37:38.921Z,49665.22
2022-10-01T03:40:06.307Z,49667.19
2022-10-01T03:42:32.877Z,49687.13
2022-10-01T03:44:59.472Z,49655.25
2022-10-01T03:47:26.168Z,49651.25
2022-10-01T03:49:52.782Z,49655.25
2022-10-01T03:52:19.801Z,49649.25
2022-10-01T03:54:46.454Z,49677.16
2022-10-01T03:57:13.117Z,49665.22
2022-10-01T03:59:39.805Z,49657.22
2022-10-01T04:02:07.680Z,49659.22
2022-10-01T04:04:34.370Z,49627.31
2022-10-01T04:07:00.993Z,49649.25
2022-10-01T04:09:27.559Z,49651.25
2022-10-01T04:11:54.703Z,49675.19
2022-10-01T04:14:21.317Z,49675.19
2022-10-01T04:16:52.337Z,49673.19
2022-10-01T04:19:19.770Z,49663.22
2022-10-01T04:21:46.364Z,49633.31
2022-10-01T04:24:12.979Z,49659.22
2022-10-01T04:26:39.639Z,49691.13
2022-10-01T04:29:06.336Z,49665.22
2022-10-01T04:31:35.394Z,49681.16
2022-10-01T04:34:03.350Z,49647.25
2022-10-01T04:36:30.060Z,49655.25
2022-10-01T04:39:01.651Z,49653.25
2022-10-01T04:41:30.765Z,49673.19
2022-10-01T04:43:59.912Z,49655.25
2022-10-01T04:46:27.079Z,49687.13
2022-10-01T04:48:53.690Z,49687.13
2022-10-01T04:51:20.326Z,49687.13
2022-10-01T04:53:47.069Z,49645.28
2022-10-01T04:56:13.691Z,49679.16
2022-10-01T04:58:41.326Z,49657.22
2022-10-01T05:01:07.984Z,49649.25
2022-10-01T05:03:34.682Z,49677.16
2022-10-01T05:06:01.503Z,49671.19
2022-10-01T05:08:28.705Z,49665.22
2022-10-01T05:10:55.302Z,49663.22
2022-10-01T05:13:21.912Z,49647.25
2022-10-01T05:15:52.248Z,49685.13
2022-10-01T05:18:19.144Z,49629.31
2022-10-01T05:20:45.899Z,49683.16
2022-10-01T05:23:12.487Z,49685.13
2022-10-01T05:25:39.073Z,49689.13
2022-10-01T05:28:05.931Z,49671.19
2022-10-01T05:30:33.872Z,49651.25
2022-10-01T05:33:02.438Z,49671.19
2022-10-01T05:35:29.705Z,49667.19
2022-10-01T05:38:01.645Z,49663.22
2022-10-01T05:40:29.275Z,49703.09
2022-10-01T05:42:58.347Z,49689.13
2022-10-01T05:45:26.897Z,49655.25
2022-10-01T05:48:07.527Z,49655.25
2022-10-01T05:50:39.193Z,49675.19
2022-10-01T05:53:07.753Z,49651.25
2022-10-01T05:55:34.782Z,49667.19
2022-10-01T05:58:06.903Z,49695.09
2022-10-01T06:00:34.501Z,49675.19
2022-10-01T06:03:02.577Z,49659.22
2022-10-01T06:05:31.213Z,49683.16
2022-10-01T06:07:58.100Z,49675.19
2022-10-01T06:10:25.284Z,49673.19
2022-10-01T06:12:51.999Z,49671.19
2022-10-01T06:15:18.941Z,49667.19
2022-10-01T06:17:45.621Z,49643.28
2022-10-01T06:20:17.268Z,49643.28
2022-10-01T06:22:44.109Z,49677.16
2022-10-01T06:25:15.647Z,49675.19
2022-10-01T06:27:42.310Z,49675.19
2022-10-01T06:30:09.636Z,49665.22
2022-10-01T06:32:36.595Z,49667.19
2022-10-01T06:35:03.900Z,49681.16
2022-10-01T06:37:30.483Z,49655.25
2022-10-01T06:39:57.151Z,49695.09
2022-10-01T06:42:23.791Z,49691.13
2022-10-01T06:44:50.405Z,49651.25
2022-10-01T06:47:17.001Z,49683.16
2022-10-01T06:49:47.286Z,49669.19
2022-10-01T06:52:33.459Z,49659.22
2022-10-01T06:55:01.480Z,49671.19
2022-10-01T06:57:29.029Z,49679.16
2022-10-01T06:59:55.917Z,49663.22
2022-10-01T07:02:30.579Z,49631.31
2022-10-01T07:04:59.083Z,49651.25
2022-10-01T07:07:32.680Z,49699.09
2022-10-01T07:09:59.567Z,49639.28
2022-10-01T07:12:26.695Z,49663.22
2022-10-01T07:14:54.565Z,49683.16
2022-10-01T07:17:22.144Z,49669.19
2022-10-01T07:19:48.784Z,49679.16
2022-10-01T07:22:15.498Z,49693.13
2022-10-01T07:24:42.089Z,49675.19
2022-10-01T07:27:08.750Z,49711.06
2022-10-01T07:29:35.358Z,49715.03
2022-10-01T07:32:04.109Z,49687.13
2022-10-01T07:34:33.586Z,49667.19
2022-10-01T07:37:00.212Z,49675.19
2022-10-01T07:39:26.973Z,49667.19
2022-10-01T07:41:53.627Z,49673.19
2022-10-01T07:44:20.441Z,49649.25
2022-10-01T07:46:48.389Z,49675.19
2022-10-01T07:49:15.237Z,49723.03
2022-10-01T07:51:43.946Z,49657.22
2022-10-01T07:54:11.426Z,49669.19
2022-10-01T07:56:38.545Z,49661.22
2022-10-01T07:59:05.530Z,49675.19
2022-10-01T08:01:33.137Z,49705.06
2022-10-01T08:04:00.198Z,49677.16
2022-10-01T08:06:26.955Z,49667.19
2022-10-01T08:08:53.627Z,49667.19
2022-10-01T08:11:20.265Z,49673.19
2022-10-01T08:13:47.489Z,49715.03
2022-10-01T08:16:14.208Z,49695.09
2022-10-01T08:18:40.905Z,49683.16
2022-10-01T08:21:08.389Z,49661.22
2022-10-01T08:23:35.134Z,49631.31
2022-10-01T08:26:05.169Z,49675.19
2022-10-01T08:28:31.904Z,49653.25
2022-10-01T08:30:58.553Z,49675.19
2022-10-01T08:33:25.181Z,49701.09
2022-10-01T08:35:51.793Z,49701.09
2022-10-01T08:38:19.762Z,49667.19
2022-10-01T08:40:50.653Z,49675.19
2022-10-01T08:43:33.784Z,49659.22
2022-10-01T08:46:04.639Z,49663.22
2022-10-01T08:48:58.837Z,49641.28
2022-10-01T08:51:33.015Z,49651.25
2022-10-01T08:54:07.584Z,49681.16
2022-10-01T08:56:44.402Z,49631.31
2022-10-01T08:59:30.136Z,49631.31
2022-10-01T09:01:57.169Z,49639.28
2022-10-01T09:04:24.198Z,49673.19
2022-10-01T09:07:09.353Z,49717.03
2022-10-01T09:10:04.949Z,49711.06
2022-10-01T09:12:51.632Z,49697.09
2022-10-01T09:15:34.233Z,49679.16
2022-10-01T09:18:19.653Z,49651.25
2022-10-01T09:20:53.642Z,49675.19
2022-10-01T09:23:20.274Z,49707.06
2022-10-01T09:25:53.291Z,49715.03
2022-10-01T09:28:23.109Z,49647.25
2022-10-01T09:31:30.705Z,49687.13
2022-10-01T09:34:09.145Z,49679.16
2022-10-01T09:36:35.783Z,49681.16
2022-10-01T09:39:10.162Z,49687.13
2022-10-01T09:41:37.165Z,49685.13
2022-10-01T09:44:04.443Z,49715.03
2022-10-01T09:46:31.513Z,49653.25
2022-10-01T09:49:12.937Z,49663.22
2022-10-01T09:51:47.878Z,49701.09
2022-10-01T09:54:39.373Z,49661.22
2022-10-01T09:57:14.747Z,49685.13
2022-10-01T10:00:16.135Z,49665.22
2022-10-01T10:02:49.327Z,49707.06
2022-10-01T10:05:16.261Z,49675.19
2022-10-01T10:07:46.750Z,49689.13
2022-10-01T10:10:16.481Z,49695.09
2022-10-01T10:12:44.134Z,49703.09
2022-10-01T10:15:17.057Z,49651.25
2022-10-01T10:17:49.137Z,49675.19
2022-10-01T10:20:29.694Z,49665.22
2022-10-01T10:23:07.686Z,49715.03
2022-10-01T10:25:34.888Z,49671.19
2022-10-01T10:28:02.490Z,49647.25
2022-10-01T10:30:29.891Z,49643.28
2022-10-01T10:33:05.654Z,49621.34
2022-10-01T10:35:32.451Z,49667.19
2022-10-01T10:37:59.303Z,49663.22
2022-10-01T10:40:31.107Z,49623.34
2022-10-01T10:42:59.138Z,49677.16
2022-10-01T10:45:33.977Z,49647.25
2022-10-01T10:48:03.989Z,49667.19
2022-10-01T10:50:36.039Z,49643.28
2022-10-01T10:53:24.183Z,49629.31
2022-10-01T10:56:04.374Z,49655.25
2022-10-01T10:58:40.339Z,49589.44
2022-10-01T11:01:13.163Z,49637.28
2022-10-01T11:03:48.467Z,49667.19
2022-10-01T11:06:18.679Z,49667.19
2022-10-01T11:08:57.205Z,49609.38
2022-10-01T11:11:42.660Z,49635.31
2022-10-01T11:14:27.491Z,49587.47
2022-10-01T11:17:12.972Z,49659.22
2022-10-01T11:19:47.282Z,49639.28
2022-10-01T11:22:19.836Z,49633.31
2022-10-01T11:25:14.711Z,49651.25
2022-10-01T11:27:56.591Z,49637.28
2022-10-01T11:30:26.456Z,49655.25
2022-10-01T11:32:56.034Z,49631.31
2022-10-01T11:35:37.238Z,49649.25
2022-10-01T11:38:35.193Z,49639.28
2022-10-01T11:41:19.832Z,49653.25
2022-10-01T11:43:53.267Z,49633.31
2022-10-01T11:46:32.543Z,49669.19
2022-10-01T11:49:08.488Z,49663.22
2022-10-01T11:51:43.469Z,49657.22
2022-10-01T11:54:15.241Z,49655.25
2022-10-01T11:57:11.442Z,49659.22
2022-10-01T12:00:12.959Z,49655.25
2022-10-01T12:03:01.244Z,49627.31
2022-10-01T12:05:32.002Z,49631.31
2022-10-01T12:08:34.049Z,49583.47
2022-10-01T12:11:16.248Z,49587.47
2022-10-01T12:13:55.167Z,49627.31
2022-10-01T12:16:40.543Z,49611.38
2022-10-01T12:19:34.702Z,49611.38
2022-10-01T12:22:15.487Z,49611.38
2022-10-01T12:24:44.426Z,49563.53
2022-10-01T12:27:37.381Z,49583.47
2022-10-01T12:30:21.731Z,49591.44
2022-10-01T12:33:00.684Z,49575.50
2022-10-01T12:35:39.762Z,49577.50
2022-10-01T12:38:28.195Z,49559.56
2022-10-01T12:41:23.163Z,49611.38
2022-10-01T12:44:19.274Z,49563.53
2022-10-01T12:47:35.218Z,49569.50
2022-10-01T12:50:35.244Z,49593.44
2022-10-01T12:53:43.648Z,49561.53
2022-10-01T12:56:30.047Z,49585.47
2022-10-01T12:59:12.328Z,49535.63
2022-10-01T13:02:35.006Z,49593.44
2022-10-01T13:05:05.069Z,49623.34
2022-10-01T13:07:47.695Z,49611.38
2022-10-01T13:10:32.307Z,49611.38
2022-10-01T13:13:08.982Z,49593.44
2022-10-01T13:15:43.022Z,49659.22
2022-10-01T13:18:37.230Z,49593.44
2022-10-01T13:21:18.480Z,49527.66
2022-10-01T13:24:00.422Z,49531.63
2022-10-01T13:26:41.554Z,49503.72
2022-10-01T13:29:38.309Z,49507.72
2022-10-01T13:32:27.188Z,49577.50
2022-10-01T13:34:55.717Z,49579.47
2022-10-01T13:37:39.861Z,49539.63
2022-10-01T13:40:31.087Z,49539.63
2022-10-01T13:43:12.708Z,49523.66
2022-10-01T13:45:42.989Z,49503.72
2022-10-01T13:48:25.922Z,49519.69
2022-10-01T13:51:11.650Z,49519.69
2022-10-01T13:53:49.997Z,49509.72
2022-10-01T13:56:36.915Z,49465.84
2022-10-01T13:59:18.750Z,49497.75
2022-10-01T14:01:45.458Z,49475.81
2022-10-01T14:04:22.496Z,49461.88
2022-10-01T14:06:53.650Z,49499.75
2022-10-01T14:09:27.292Z,49491.78
2022-10-01T14:12:17.642Z,49447.91
2022-10-01T14:15:13.972Z,49443.94
2022-10-01T14:17:43.159Z,49483.81
2022-10-01T14:20:18.409Z,49467.84
2022-10-01T14:23:05.488Z,49485.78
2022-10-01T14:25:41.247Z,49529.66
2022-10-01T14:28:13.848Z,49487.78
2022-10-01T14:30:58.612Z,49555.56
2022-10-01T14:33:50.093Z,49531.63
2022-10-01T14:36:37.518Z,49551.56
2022-10-01T14:39:26.075Z,49551.56
2022-10-01T14:41:54.648Z,49591.44
2022-10-01T14:44:28.731Z,49565.53
2022-10-01T14:46:57.985Z,49595.44
2022-10-01T14:49:29.983Z,49611.38
2022-10-01T14:52:01.637Z,49623.34
2022-10-01T14:54:30.128Z,49589.44
2022-10-01T14:56:57.144Z,49599.41
2022-10-01T14:59:35.008Z,49583.47
2022-10-01T15:02:11.754Z,49543.59
2022-10-01T15:04:46.190Z,49517.69
2022-10-01T15:07:16.777Z,49501.75
2022-10-01T15:09:44.874Z,49535.63
2022-10-01T15:12:13.750Z,49483.81
2022-10-01T15:14:42.564Z,49463.88
2022-10-01T15:17:20.692Z,49549.59
2022-10-01T15:19:52.129Z,49515.69
2022-10-01T15:22:26.258Z,49561.53
2022-10-01T15:24:57.821Z,49583.47
2022-10-01T15:27:26.018Z,49551.56
2022-10-01T15:29:56.655Z,49511.72
2022-10-01T15:32:25.440Z,49569.50
2022-10-01T15:34:56.040Z,49587.47
2022-10-01T15:37:29.691Z,49571.50
2022-10-01T15:39:57.558Z,49571.50
2022-10-01T15:42:28.298Z,49601.41
2022-10-01T15:45:06.802Z,49571.50
2022-10-01T15:47:38.136Z,49563.53
2022-10-01T15:50:10.580Z,49503.72
2022-10-01T15:52:50.843Z,49521.69
2022-10-01T15:55:26.300Z,49473.84
2022-10-01T15:58:16.300Z,49479.81
2022-10-01T16:00:57.701Z,49519.69
2022-10-01T16:03:29.267Z,49545.59
2022-10-01T16:05:56.445Z,49605.41
2022-10-01T16:08:26.464Z,49591.44
2022-10-01T16:11:08.339Z,49571.50
2022-10-01T16:13:44.939Z,49571.50
2022-10-01T16:16:14.405Z,49507.72
2022-10-01T16:18:41.843Z,49513.69
2022-10-01T16:21:10.494Z,49475.81
2022-10-01T16:23:40.182Z,49527.66
2022-10-01T16:26:29.889Z,49501.75
2022-10-01T16:29:18.464Z,49471.84
2022-10-01T16:31:45.822Z,49507.72
2022-10-01T16:34:14.780Z,49563.53
2022-10-01T16:36:41.926Z,49583.47
2022-10-01T16:39:08.828Z,49549.59
2022-10-01T16:41:36.052Z,49587.47
2022-10-01T16:44:05.145Z,49583.47
2022-10-01T16:46:32.919Z,49571.50
2022-10-01T16:48:59.706Z,49613.38
2022-10-01T16:51:27.090Z,49619.34
2022-10-01T16:53:55.015Z,49567.53
2022-10-01T16:56:26.903Z,49585.47
2022-10-01T16:58:53.805Z,49619.34
2022-10-01T17:01:20.539Z,49583.47
2022-10-01T17:03:47.199Z,49595.44
2022-10-01T17:06:13.907Z,49599.41
2022-10-01T17:08:40.477Z,49611.38
2022-10-01T17:11:11.906Z,49619.34
2022-10-01T17:13:39.238Z,49607.41
2022-10-01T17:16:06.634Z,49575.50
2022-10-01T17:18:33.573Z,49579.47
2022-10-01T17:21:03.499Z,49603.41
2022-10-01T17:23:30.167Z,49563.53
2022-10-01T17:25:56.821Z,49611.38
2022-10-01T17:28:24.398Z,49657.22
2022-10-01T17:30:51.161Z,49615.38
2022-10-01T17:33:19.429Z,49599.41
2022-10-01T17:35:51.673Z,49613.38
2022-10-01T17:38:19.281Z,49607.41
2022-10-01T17:40:46.478Z,49599.41
2022-10-01T17:43:17.278Z,49617.38
2022-10-01T17:45:48.454Z,49641.28
2022-10-01T17:48:17.904Z,49601.41
2022-10-01T17:50:46.546Z,49603.41
2022-10-01T17:53:14.620Z,49595.44
2022-10-01T17:55:42.380Z,49599.41
2022-10-01T17:58:10.281Z,49619.34
2022-10-01T18:00:37.753Z,49625.34
2022-10-01T18:03:04.444Z,49599.41
2022-10-01T18:05:31.227Z,49651.25
2022-10-01T18:07:57.871Z,49635.31
2022-10-01T18:10:24.545Z,49643.28
2022-10-01T18:12:51.217Z,49605.41
2022-10-01T18:15:20.745Z,49631.31
2022-10-01T18:17:51.993Z,49621.34
2022-10-01T18:20:22.976Z,49623.34
2022-10-01T18:22:50.438Z,49601.41
2022-10-01T18:25:19.251Z,49607.41
2022-10-01T18:27:50.082Z,49637.28
2022-10-01T18:30:17.392Z,49627.31
2022-10-01T18:32:48.332Z,49627.31
2022-10-01T18:35:43.746Z,49601.41
2022-10-01T18:38:27.840Z,49645.28
2022-10-01T18:40:59.807Z,49599.41
2022-10-01T18:43:26.522Z,49603.41
2022-10-01T18:46:10.917Z,49597.44
2022-10-01T18:48:54.874Z,49615.38
2022-10-01T18:51:52.425Z,49621.34
2022-10-01T18:54:21.885Z,49637.28
2022-10-01T18:57:09.746Z,49623.34
2022-10-01T19:00:04.080Z,49605.41
2022-10-01T19:03:01.638Z,49619.34
2022-10-01T19:05:40.545Z,49621.34
2022-10-01T19:08:37.793Z,49619.34
2022-10-01T19:11:18.202Z,49595.44
2022-10-01T19:14:28.773Z,49619.34
2022-10-01T19:17:15.241Z,49619.34
2022-10-01T19:19:53.603Z,49635.31
2022-10-01T19:22:33.959Z,49601.41
2022-10-01T19:25:22.200Z,49633.31
2022-10-01T19:28:19.201Z,49619.34
2022-10-01T19:31:04.363Z,49617.38
2022-10-01T19:33:37.294Z,49653.25
2022-10-01T19:36:06.703Z,49645.28
2022-10-01T19:38:41.077Z,49635.31
2022-10-01T19:41:20.629Z,49597.44
2022-10-01T19:43:56.506Z,49663.22
2022-10-01T19:46:32.175Z,49641.28
2022-10-01T19:49:08.541Z,49629.31
2022-10-01T19:51:46.166Z,49627.31
2022-10-01T19:54:21.137Z,49629.31
2022-10-01T19:57:00.957Z,49611.38
2022-10-01T19:59:28.843Z,49639.28
2022-10-01T20:01:59.231Z,49647.25
2022-10-01T20:04:36.232Z,49643.28
2022-10-01T20:07:21.508Z,49663.22
2022-10-01T20:10:04.463Z,49595.44
2022-10-01T20:12:48.923Z,49643.28
2022-10-01T20:15:40.198Z,49619.34
2022-10-01T20:18:27.654Z,49623.34
2022-10-01T20:21:16.433Z,49647.25
2022-10-01T20:23:46.875Z,49619.34
2022-10-01T20:26:31.034Z,49655.25
2022-10-01T20:29:15.863Z,49623.34
2022-10-01T20:31:57.609Z,49639.28
2022-10-01T20:34:40.399Z,49691.13
2022-10-01T20:37:43.543Z,49635.31
2022-10-01T20:40:18.276Z,49631.31
2022-10-01T20:42:49.167Z,49631.31
2022-10-01T20:45:23.209Z,49649.25
2022-10-01T20:48:16.445Z,49639.28
2022-10-01T20:50:51.034Z,49623.34
2022-10-01T20:53:32.356Z,49637.28
2022-10-01T20:56:04.320Z,49667.19
2022-10-01T20:58:35.828Z,49671.19
2022-10-01T21:01:16.883Z,49611.38
2022-10-01T21:04:06.081Z,49605.41
2022-10-01T21:06:45.780Z,49629.31
2022-10-01T21:09:29.937Z,49619.34
2022-10-01T21:12:08.719Z,49679.16
2022-10-01T21:14:37.967Z,49659.22
2022-10-01T21:17:22.574Z,49637.28
2022-10-01T21:20:09.476Z,49655.25
2022-10-01T21:22:45.811Z,49659.22
2022-10-01T21:25:21.391Z,49619.34
2022-10-01T21:28:06.243Z,49661.22
2022-10-01T21:31:02.361Z,49659.22
2022-10-01T21:33:34.777Z,49629.31
2022-10-01T21:36:15.888Z,49607.41
2022-10-01T21:38:45.560Z,49655.25
2022-10-01T21:41:48.167Z,49659.22
2022-10-01T21:44:33.295Z,49637.28
2022-10-01T21:47:19.030Z,49657.22
2022-10-01T21:50:11.213Z,49653.25
2022-10-01T21:53:04.132Z,49643.28
2022-10-01T21:56:00.642Z,49679.16
2022-10-01T21:58:39.549Z,49663.22
2022-10-01T22:01:35.222Z,49655.25
2022-10-01T22:04:01.852Z,49671.19
2022-10-01T22:06:45.756Z,49647.25
2022-10-01T22:09:38.894Z,49655.25
2022-10-01T22:12:07.315Z,49639.28
2022-10-01T22:14:34.188Z,49635.31
2022-10-01T22:17:17.680Z,49659.22
2022-10-01T22:19:48.558Z,49667.19
2022-10-01T22:22:22.341Z,49675.19
2022-10-01T22:24:54.528Z,49639.28
2022-10-01T22:27:31.989Z,49663.22
2022-10-01T22:30:00.639Z,49667.19
2022-10-01T22:32:33.366Z,49651.25
2022-10-01T22:35:04.789Z,49649.25
2022-10-01T22:37:37.567Z,49693.13
2022-10-01T22:40:18.309Z,49655.25
2022-10-01T22:42:55.258Z,49645.28
2022-10-01T22:45:37.384Z,49647.25
2022-10-01T22:48:22.498Z,49655.25
2022-10-01T22:51:04.531Z,49651.25
2022-10-01T22:53:31.094Z,49661.22
2022-10-01T22:55:58.044Z,49689.13
2022-10-01T22:58:46.431Z,49669.19
2022-10-01T23:01:35.187Z,49621.34
2022-10-01T23:04:31.906Z,49635.31
2022-10-01T23:07:33.972Z,49641.28
2022-10-01T23:10:06.248Z,49649.25
2022-10-01T23:12:44.686Z,49703.09
2022-10-01T23:15:20.162Z,49665.22
2022-10-01T23:18:16.968Z,49649.25
2022-10-01T23:21:24.742Z,49609.38
2022-10-01T23:23:58.765Z,49631.31
2022-10-01T23:26:46.963Z,49669.19
2022-10-01T23:29:22.369Z,49671.19
2022-10-01T23:32:12.064Z,49675.19
2022-10-01T23:34:57.237Z,49663.22
2022-10-01T23:37:49.984Z,49665.22
2022-10-01T23:40:20.630Z,49629.31
2022-10-01T23:43:06.533Z,49663.22
2022-10-01T23:45:42.942Z,49673.19
2022-10-01T23:48:25.453Z,49649.25
2022-10-01T23:51:01.264Z,49667.19
2022-10-01T23:53:55.114Z,49669.19
2022-10-01T23:56:45.656Z,49661.22
2022-10-01T23:59:36.522Z,49673.19
